Chrisopigi Lady — A8EQ9 — position and weather

sailwx.info

Track history (hours):
 
Tides and Currents Weather Stations Pressure Air Temp Water Temp Dewpoint Dewpoint Depression Visibility Wind Speed Wind Dir Waves Ship Positions

Chrisopigi Lady

Last reported at 2015-Mar-03 11:20 UTC. Time now 2015-Mar-03 22:37 UTC.
Position N 40°39' W 074°06'.

Length 228 m; draft 12.3 m.

Type: Ship (hazmat cat A). MMSI: 636012314.

Date/timePositionNaut miles runAvg speedWind from/ knotsBaromVisibWave heightAir tempDewpointWater temp
2015-Mar-03 11:20N 40°39' W 074°06'4 4.6
2015-Mar-03 10:33N 40°36' W 074°03'8 8.2
2015-Mar-03 09:33N 40°30' W 073°56'15 0.3
2015-Mar-01 10:18N 40°29' W 073°36'1 0.0
2015-Feb-28 15:29N 40°28' W 073°37'10 9.2
2015-Feb-28 14:26N 40°29' W 073°24'3411.7
2015-Feb-28 11:30N 40°31' W 072°39'1112.0
2015-Feb-28 10:33N 40°31' W 072°24'1212.0
2015-Feb-28 09:33N 40°31' W 072°08'1212.1
2015-Feb-28 08:33N 40°31' W 071°52'1212.2
2015-Feb-28 07:33N 40°32' W 071°36'1212.0
2015-Feb-28 06:33N 40°32' W 071°20'1212.1
2015-Feb-28 05:33N 40°32' W 071°05'3012.1
2015-Feb-28 03:06N 40°33' W 070°25'  
Track history (hours):
 
Tides and Currents Weather Stations Pressure Air Temp Water Temp Dewpoint Dewpoint Depression Visibility Wind Speed Wind Dir Waves Ship Positions

Chrisopigi Lady

Last reported at 2015-Mar-03 11:20 UTC. Time now 2015-Mar-03 22:37 UTC.
Position N 40°39' W 074°06'.

Length 228 m; draft 12.3 m.

Type: Ship (hazmat cat A). MMSI: 636012314.

Date/timePositionNaut miles runAvg speedWind from/ knotsBaromVisibWave heightAir tempDewpointWater temp
2015-Mar-03 11:20N 40°39' W 074°06'4 4.6
2015-Mar-03 10:33N 40°36' W 074°03'8 8.2
2015-Mar-03 09:33N 40°30' W 073°56'15 0.3
2015-Mar-01 10:18N 40°29' W 073°36'1 0.0
2015-Feb-28 15:29N 40°28' W 073°37'10 9.2
2015-Feb-28 14:26N 40°29' W 073°24'3411.7
2015-Feb-28 11:30N 40°31' W 072°39'1112.0
2015-Feb-28 10:33N 40°31' W 072°24'1212.0
2015-Feb-28 09:33N 40°31' W 072°08'1212.1
2015-Feb-28 08:33N 40°31' W 071°52'1212.2
2015-Feb-28 07:33N 40°32' W 071°36'1212.0
2015-Feb-28 06:33N 40°32' W 071°20'1212.1
2015-Feb-28 05:33N 40°32' W 071°05'3012.1
2015-Feb-28 03:06N 40°33' W 070°25'  

Dump ship's entire track history